Southmayd, TX (76268)

1:59 AM CDT on April 02, 2015 (GMT -0500)
Sherman-Denison | | Change Station
CLOSE
Current Station
Airport
Location: Sherman-Denison,
Elevation: 748 ft
Nearby Weather Stations

Elev 748 ft 33.71 °N, 96.67 °W | Updated 24 minutes ago

Clear
Clear
69 °F
Feels Like 69 °F
N
20
Wind Variable Wind from South
Gusts 23 mph

Today
High -- | Low -- °F
--% Chance of Precip.
Yesterday
High -- | Low -- °F
Precip. -- in
7:13 AM 7:48 PM
Waxing Gibbous, 96% visible
Pressure 29.83 in
Visibility 7.0 miles
Clouds Clear
Dew Point 66 °F
Humidity 92%
Rainfall 0.00 in
Snow Depth Not available.
UV 0 out of 12
Pollen 11.70 out of 12
Air Quality Not available.
Flu Activity Not available.
METAR KGYI 020635Z AUTO 17017G20KT 7SM CLR 20/19 A2983 RMK AO2 T02040190

More Conditions Fewer Conditions

Pressure 29.83 in
Visibility 7.0 miles
Clouds Clear
Dew Point 66 °F
Humidity 92%
Rainfall 0.00 in
Snow Depth Not available.
UV 0 out of 12
Pollen 11.70 out of 12
Air Quality Not available.
Flu Activity Not available.
METAR KGYI 020635Z AUTO 17017G20KT 7SM CLR 20/19 A2983 RMK AO2 T02040190

More Conditions Fewer Conditions

10-Day Weather Forecast

Almanac

Astronomy

Apr. 02, 2015 Rise Set
Actual Time
Civil Twilight
Nautical Twilight
Astronomical Twilight
Moon
Length of Visible Light
Length of Day
Tomorrow will be .
, % of the Moon is Illuminated

Today's Extremes

State Highs State Lows

Community

WunderPhotos

Upload Photos

1,810,204 photos uploaded!

WunderBlogs® & News

Nearby

Air Quality

  Air Quality AQ Index Pollutant
Not available.

Snow Depth

Station Depth Elevation

Earthquake Activity

City Distance Mag. Time & Date
Minimum magnitude displayed is 2.5.

Coastal Water Temperatures

Place Temperature

Stations

Nearby Weather Stations

Station Location Temp. Windchill Dew Point Humidity Wind Precip. Elev Updated Type